createdAt,value
2022-11-27T00:00:00.112Z,21.6500
2022-11-27T00:00:11.370Z,21.6600
2022-11-27T00:00:22.559Z,21.6600
2022-11-27T00:00:33.772Z,21.6700
2022-11-27T00:00:44.984Z,21.6800
2022-11-27T00:00:56.173Z,21.6800
2022-11-27T00:01:07.293Z,21.6800
2022-11-27T00:01:18.458Z,21.6700
2022-11-27T00:01:29.661Z,21.6600
2022-11-27T00:01:40.733Z,21.6500
2022-11-27T00:01:51.858Z,21.6500
2022-11-27T00:02:02.959Z,21.6500
2022-11-27T00:02:14.094Z,21.6600
2022-11-27T00:02:25.291Z,21.6800
2022-11-27T00:02:40.463Z,21.6800
2022-11-27T00:02:52.132Z,21.6900
2022-11-27T00:03:03.396Z,21.6600
2022-11-27T00:03:14.727Z,21.6700
2022-11-27T00:03:26.085Z,21.6600
2022-11-27T00:03:37.439Z,21.6700
2022-11-27T00:03:48.766Z,21.6700
2022-11-27T00:03:59.946Z,21.6800
2022-11-27T00:04:11.075Z,21.6900
2022-11-27T00:04:22.278Z,21.6900
2022-11-27T00:04:33.452Z,21.7000
2022-11-27T00:04:44.642Z,21.7100
2022-11-27T00:04:55.862Z,21.7200
2022-11-27T00:05:07.052Z,21.7200
2022-11-27T00:05:18.132Z,21.7200
2022-11-27T00:05:29.264Z,21.7300
2022-11-27T00:05:40.391Z,21.7300
2022-11-27T00:05:51.491Z,21.7300
2022-11-27T00:06:02.732Z,21.7400
2022-11-27T00:06:13.919Z,21.7400
2022-11-27T00:06:25.001Z,21.7400
2022-11-27T00:06:36.153Z,21.7500
2022-11-27T00:06:47.277Z,21.7500
2022-11-27T00:06:58.412Z,21.7500
2022-11-27T00:07:09.666Z,21.7500
2022-11-27T00:07:20.906Z,21.7600
2022-11-27T00:07:32.087Z,21.7500
2022-11-27T00:07:43.423Z,21.7500
2022-11-27T00:07:54.869Z,21.7500
2022-11-27T00:08:06.042Z,21.7500
2022-11-27T00:08:17.189Z,21.7500
2022-11-27T00:08:28.335Z,21.7500
2022-11-27T00:08:39.531Z,21.7500
2022-11-27T00:08:50.602Z,21.7500
2022-11-27T00:09:01.678Z,21.7500
2022-11-27T00:09:12.798Z,21.7500
2022-11-27T00:09:24.045Z,21.7500
2022-11-27T00:09:35.161Z,21.7500
2022-11-27T00:09:46.412Z,21.7500
2022-11-27T00:09:57.474Z,21.7600
2022-11-27T00:10:08.548Z,21.7600
2022-11-27T00:10:19.673Z,21.7600
2022-11-27T00:10:30.892Z,21.7700
2022-11-27T00:10:42.090Z,21.7700
2022-11-27T00:10:53.316Z,21.7700
2022-11-27T00:11:04.492Z,21.7700
2022-11-27T00:11:15.564Z,21.7700
2022-11-27T00:11:26.661Z,21.7700
2022-11-27T00:11:37.952Z,21.7700
2022-11-27T00:11:49.049Z,21.7700
2022-11-27T00:12:00.194Z,21.7700
2022-11-27T00:12:11.261Z,21.7800
2022-11-27T00:12:22.368Z,21.7800
2022-11-27T00:12:33.442Z,21.7800
2022-11-27T00:12:44.522Z,21.7800
2022-11-27T00:12:55.621Z,21.7800
2022-11-27T00:13:06.721Z,21.7800
2022-11-27T00:13:17.806Z,21.7800
2022-11-27T00:13:28.895Z,21.7800
2022-11-27T00:13:40.062Z,21.7800
2022-11-27T00:13:51.222Z,21.7800
2022-11-27T00:14:02.411Z,21.7800
2022-11-27T00:14:13.681Z,21.7800
2022-11-27T00:14:24.812Z,21.7700
2022-11-27T00:14:36.000Z,21.7800
2022-11-27T00:14:47.232Z,21.7800
2022-11-27T00:14:58.402Z,21.7700
2022-11-27T00:15:13.413Z,21.7700
2022-11-27T00:15:26.569Z,21.7700
2022-11-27T00:15:37.813Z,21.7500
2022-11-27T00:15:48.928Z,21.7500
2022-11-27T00:16:00.222Z,21.7500
2022-11-27T00:16:11.443Z,21.7600
2022-11-27T00:16:22.649Z,21.7600
2022-11-27T00:16:33.854Z,21.7600
2022-11-27T00:16:45.062Z,21.7600
2022-11-27T00:16:56.161Z,21.7600
2022-11-27T00:17:07.371Z,21.7600
2022-11-27T00:17:18.454Z,21.7600
2022-11-27T00:17:29.551Z,21.7600
2022-11-27T00:17:40.658Z,21.7600
2022-11-27T00:17:51.760Z,21.7600
2022-11-27T00:18:02.863Z,21.7600
2022-11-27T00:18:13.982Z,21.7600
2022-11-27T00:18:25.119Z,21.7600
2022-11-27T00:18:36.333Z,21.7600
2022-11-27T00:18:47.532Z,21.7600
2022-11-27T00:18:58.743Z,21.7500
2022-11-27T00:19:09.812Z,21.7500
2022-11-27T00:19:20.931Z,21.7500
2022-11-27T00:19:32.070Z,21.7600
2022-11-27T00:19:43.201Z,21.7600
2022-11-27T00:19:54.402Z,21.7600
2022-11-27T00:20:05.622Z,21.7600
2022-11-27T00:20:16.804Z,21.7600
2022-11-27T00:20:29.818Z,21.7600
2022-11-27T00:20:41.174Z,21.7600
2022-11-27T00:20:52.322Z,21.7400
2022-11-27T00:21:03.575Z,21.7500
2022-11-27T00:21:14.753Z,21.7500
2022-11-27T00:21:25.941Z,21.7600
2022-11-27T00:21:37.053Z,21.7600
2022-11-27T00:21:48.372Z,21.7600
2022-11-27T00:21:59.518Z,21.7600
2022-11-27T00:22:10.731Z,21.7600
2022-11-27T00:22:21.923Z,21.7600
2022-11-27T00:22:33.022Z,21.7600
2022-11-27T00:22:44.136Z,21.7600
2022-11-27T00:22:55.294Z,21.7600
2022-11-27T00:23:06.391Z,21.7600
2022-11-27T00:23:17.615Z,21.7600
2022-11-27T00:23:28.791Z,21.7600
2022-11-27T00:23:39.848Z,21.7600
2022-11-27T00:23:50.923Z,21.7600
2022-11-27T00:24:02.091Z,21.7600
2022-11-27T00:24:13.332Z,21.7600
2022-11-27T00:24:24.481Z,21.7600
2022-11-27T00:24:35.702Z,21.7600
2022-11-27T00:24:46.771Z,21.7500
2022-11-27T00:24:57.918Z,21.7500
2022-11-27T00:25:09.045Z,21.7400
2022-11-27T00:25:20.158Z,21.7400
2022-11-27T00:25:31.360Z,21.7400
2022-11-27T00:25:42.561Z,21.7400
2022-11-27T00:25:53.762Z,21.7400
2022-11-27T00:26:05.041Z,21.7500
2022-11-27T00:26:16.202Z,21.7400
2022-11-27T00:26:27.385Z,21.7400
2022-11-27T00:26:38.699Z,21.7400
2022-11-27T00:26:49.914Z,21.7400
2022-11-27T00:27:00.963Z,21.7300
2022-11-27T00:27:12.155Z,21.7300
2022-11-27T00:27:23.360Z,21.7300
2022-11-27T00:27:34.558Z,21.7300
2022-11-27T00:27:45.761Z,21.7300
2022-11-27T00:27:56.823Z,21.7300
2022-11-27T00:28:07.894Z,21.7300
2022-11-27T00:28:19.040Z,21.7300
2022-11-27T00:28:30.261Z,21.7300
2022-11-27T00:28:41.451Z,21.7300
2022-11-27T00:28:52.671Z,21.7300
2022-11-27T00:29:03.871Z,21.7400
2022-11-27T00:29:15.052Z,21.7400
2022-11-27T00:29:26.271Z,21.7400
2022-11-27T00:29:37.383Z,21.7400
2022-11-27T00:29:48.652Z,21.7400
2022-11-27T00:29:59.756Z,21.7400
2022-11-27T00:30:10.833Z,21.7400
2022-11-27T00:30:21.920Z,21.7400
2022-11-27T00:30:33.138Z,21.7300
2022-11-27T00:30:44.405Z,21.7400
2022-11-27T00:30:55.562Z,21.7300
2022-11-27T00:31:06.700Z,21.7300
2022-11-27T00:31:18.141Z,21.7300
2022-11-27T00:31:29.445Z,21.7300
2022-11-27T00:31:40.781Z,21.7200
2022-11-27T00:31:51.922Z,21.7200
2022-11-27T00:32:03.046Z,21.7300
2022-11-27T00:32:14.241Z,21.7300
2022-11-27T00:32:25.451Z,21.7300
2022-11-27T00:32:36.672Z,21.7300
2022-11-27T00:32:47.796Z,21.7300
2022-11-27T00:32:59.064Z,21.7300
2022-11-27T00:33:10.272Z,21.7300
2022-11-27T00:33:21.481Z,21.7200
2022-11-27T00:33:32.638Z,21.7300
2022-11-27T00:33:43.851Z,21.7200
2022-11-27T00:33:55.207Z,21.7200
2022-11-27T00:34:06.281Z,21.7200
2022-11-27T00:34:17.504Z,21.7200
2022-11-27T00:34:28.643Z,21.7200
2022-11-27T00:34:40.301Z,21.7200
2022-11-27T00:34:51.752Z,21.7200
2022-11-27T00:35:02.873Z,21.7200
2022-11-27T00:35:14.082Z,21.7200
2022-11-27T00:35:25.278Z,21.7200
2022-11-27T00:35:36.502Z,21.7200
2022-11-27T00:35:47.621Z,21.7200
2022-11-27T00:35:58.882Z,21.7300
2022-11-27T00:36:10.080Z,21.7200
2022-11-27T00:36:21.211Z,21.7300
2022-11-27T00:36:32.323Z,21.7200
2022-11-27T00:36:47.927Z,21.7200
2022-11-27T00:37:00.421Z,21.7200
2022-11-27T00:37:11.543Z,21.7000
2022-11-27T00:37:22.751Z,21.6900
2022-11-27T00:37:33.921Z,21.7000
2022-11-27T00:37:45.121Z,21.7100
2022-11-27T00:37:56.331Z,21.7200
2022-11-27T00:38:07.534Z,21.7200
2022-11-27T00:38:18.752Z,21.7200
2022-11-27T00:38:32.488Z,21.7200
2022-11-27T00:38:45.691Z,21.7200
2022-11-27T00:38:56.791Z,21.6900
2022-11-27T00:39:08.020Z,21.7000
2022-11-27T00:39:19.181Z,21.7100
2022-11-27T00:39:30.412Z,21.7100
2022-11-27T00:39:41.598Z,21.7200
2022-11-27T00:39:52.822Z,21.7200
2022-11-27T00:40:03.918Z,21.7100
2022-11-27T00:40:15.232Z,21.7200
2022-11-27T00:40:26.452Z,21.7200
2022-11-27T00:40:37.612Z,21.7200
2022-11-27T00:40:48.747Z,21.7200
2022-11-27T00:41:00.049Z,21.7100
2022-11-27T00:41:11.218Z,21.7100
2022-11-27T00:41:22.472Z,21.7100
2022-11-27T00:41:33.633Z,21.7100
2022-11-27T00:41:44.792Z,21.7100
2022-11-27T00:41:56.036Z,21.7100
2022-11-27T00:42:07.323Z,21.7200
2022-11-27T00:42:18.452Z,21.7200
2022-11-27T00:42:29.645Z,21.7100
2022-11-27T00:42:40.718Z,21.7100
2022-11-27T00:42:51.832Z,21.7200
2022-11-27T00:43:02.921Z,21.7200
2022-11-27T00:43:14.091Z,21.7200
2022-11-27T00:43:25.279Z,21.7200
2022-11-27T00:43:43.716Z,21.7200
2022-11-27T00:43:53.511Z,21.7200
2022-11-27T00:44:04.574Z,21.7000
2022-11-27T00:44:15.941Z,21.7000
2022-11-27T00:44:27.051Z,21.7100
2022-11-27T00:44:38.674Z,21.7100
2022-11-27T00:44:50.142Z,21.7100
2022-11-27T00:45:01.307Z,21.7000
2022-11-27T00:45:12.420Z,21.7100
2022-11-27T00:45:23.522Z,21.7100
2022-11-27T00:45:34.609Z,21.7100
2022-11-27T00:45:45.762Z,21.7100
2022-11-27T00:45:57.013Z,21.7100
2022-11-27T00:46:08.245Z,21.7100
2022-11-27T00:46:21.755Z,21.7100
2022-11-27T00:46:36.398Z,21.7000
2022-11-27T00:46:47.609Z,21.6800
2022-11-27T00:46:58.779Z,21.6800
2022-11-27T00:47:10.001Z,21.6800
2022-11-27T00:47:21.139Z,21.6900
2022-11-27T00:47:32.242Z,21.6900
2022-11-27T00:47:43.341Z,21.6900
2022-11-27T00:47:54.421Z,21.6900
2022-11-27T00:48:05.611Z,21.6900
2022-11-27T00:48:16.845Z,21.6900
2022-11-27T00:48:27.923Z,21.6900
2022-11-27T00:48:39.025Z,21.6900
2022-11-27T00:48:50.072Z,21.7000
2022-11-27T00:49:01.304Z,21.7000
2022-11-27T00:49:12.493Z,21.7000
2022-11-27T00:49:23.602Z,21.7000
2022-11-27T00:49:34.711Z,21.7000
2022-11-27T00:49:45.871Z,21.7000
2022-11-27T00:49:57.098Z,21.7000
2022-11-27T00:50:08.192Z,21.7000
2022-11-27T00:50:19.361Z,21.7000
2022-11-27T00:50:30.552Z,21.7100
2022-11-27T00:50:41.760Z,21.7100
2022-11-27T00:50:52.952Z,21.7100
2022-11-27T00:51:04.162Z,21.7100
2022-11-27T00:51:15.394Z,21.7100
2022-11-27T00:51:26.523Z,21.7100
2022-11-27T00:51:37.600Z,21.7100
2022-11-27T00:51:48.698Z,21.7100
2022-11-27T00:51:59.853Z,21.7100
2022-11-27T00:52:10.973Z,21.7100
2022-11-27T00:52:22.234Z,21.7100
2022-11-27T00:52:33.439Z,21.7100
2022-11-27T00:52:44.652Z,21.7100
2022-11-27T00:52:55.883Z,21.7100
2022-11-27T00:53:07.040Z,21.7100
2022-11-27T00:53:18.252Z,21.7100
2022-11-27T00:53:29.368Z,21.7200
2022-11-27T00:53:40.461Z,21.7200
2022-11-27T00:53:51.612Z,21.7200
2022-11-27T00:54:02.803Z,21.7200
2022-11-27T00:54:13.922Z,21.7200
2022-11-27T00:54:25.126Z,21.7200
2022-11-27T00:54:36.332Z,21.7200
2022-11-27T00:54:47.552Z,21.7200
2022-11-27T00:54:58.718Z,21.7100
2022-11-27T00:55:09.921Z,21.7200
2022-11-27T00:55:21.124Z,21.7200
2022-11-27T00:55:32.333Z,21.7100
2022-11-27T00:55:43.532Z,21.7100
2022-11-27T00:55:54.720Z,21.7200
2022-11-27T00:56:05.981Z,21.7200
2022-11-27T00:56:17.153Z,21.7100
2022-11-27T00:56:28.292Z,21.7100
2022-11-27T00:56:39.544Z,21.7100
2022-11-27T00:56:50.732Z,21.7100
2022-11-27T00:57:01.877Z,21.7100
2022-11-27T00:57:13.192Z,21.7100
2022-11-27T00:57:24.321Z,21.7100
2022-11-27T00:57:35.426Z,21.7100
2022-11-27T00:57:46.564Z,21.7100
2022-11-27T00:57:57.631Z,21.7100
2022-11-27T00:58:08.720Z,21.7100
2022-11-27T00:58:19.821Z,21.7100
2022-11-27T00:58:30.898Z,21.7100
2022-11-27T00:58:41.942Z,21.7100
2022-11-27T00:58:53.020Z,21.7100
2022-11-27T00:59:04.082Z,21.7100
2022-11-27T00:59:15.182Z,21.7100
2022-11-27T00:59:26.322Z,21.7100
2022-11-27T00:59:37.442Z,21.7100
2022-11-27T00:59:48.641Z,21.7100
2022-11-27T00:59:59.862Z,21.7100
2022-11-27T01:00:11.136Z,21.7000
2022-11-27T01:00:22.251Z,21.7000
2022-11-27T01:00:33.442Z,21.7000
2022-11-27T01:00:44.653Z,21.7000
2022-11-27T01:00:55.786Z,21.7000
2022-11-27T01:01:06.869Z,21.7000
2022-11-27T01:01:18.108Z,21.7000
2022-11-27T01:01:29.244Z,21.7000
2022-11-27T01:01:40.367Z,21.7000
2022-11-27T01:01:51.649Z,21.7000
2022-11-27T01:02:02.780Z,21.7000
2022-11-27T01:02:14.116Z,21.7000
2022-11-27T01:02:25.305Z,21.7000
2022-11-27T01:02:36.445Z,21.7000
2022-11-27T01:02:47.579Z,21.7000
2022-11-27T01:02:58.811Z,21.7000
2022-11-27T01:03:10.018Z,21.7000
2022-11-27T01:03:21.130Z,21.7000
2022-11-27T01:03:32.314Z,21.7100
2022-11-27T01:03:43.402Z,21.7100
2022-11-27T01:03:54.501Z,21.7100
2022-11-27T01:04:05.611Z,21.7100
2022-11-27T01:04:16.798Z,21.7100
2022-11-27T01:04:28.062Z,21.7100
2022-11-27T01:04:39.504Z,21.7000
2022-11-27T01:04:50.771Z,21.7000
2022-11-27T01:05:01.904Z,21.7000
2022-11-27T01:05:13.164Z,21.7000
2022-11-27T01:05:24.338Z,21.7000
2022-11-27T01:05:35.471Z,21.6900
2022-11-27T01:05:46.753Z,21.6900
2022-11-27T01:05:57.930Z,21.7000
2022-11-27T01:06:09.131Z,21.7000
2022-11-27T01:06:20.353Z,21.7000
2022-11-27T01:06:31.552Z,21.7000
2022-11-27T01:06:42.752Z,21.7000
2022-11-27T01:06:53.952Z,21.7000
2022-11-27T01:07:05.118Z,21.7000
2022-11-27T01:07:16.525Z,21.7000
2022-11-27T01:07:27.718Z,21.7000
2022-11-27T01:07:38.852Z,21.7000
2022-11-27T01:07:50.003Z,21.6900
2022-11-27T01:08:01.119Z,21.6900
2022-11-27T01:08:12.201Z,21.6900
2022-11-27T01:08:23.303Z,21.6900
2022-11-27T01:08:34.412Z,21.6900
2022-11-27T01:08:45.688Z,21.6900
2022-11-27T01:08:56.813Z,21.6900
2022-11-27T01:09:07.998Z,21.6900
2022-11-27T01:09:19.201Z,21.6900
2022-11-27T01:09:30.262Z,21.6900
2022-11-27T01:09:41.328Z,21.6900
2022-11-27T01:09:52.509Z,21.6900
2022-11-27T01:10:03.701Z,21.7000
2022-11-27T01:10:14.892Z,21.7000
2022-11-27T01:10:26.082Z,21.7000
2022-11-27T01:10:37.293Z,21.7100
2022-11-27T01:10:53.323Z,21.7100
2022-11-27T01:11:05.532Z,21.7100
2022-11-27T01:11:16.654Z,21.7000
2022-11-27T01:11:27.911Z,21.7000
2022-11-27T01:11:39.041Z,21.7100
2022-11-27T01:11:50.162Z,21.7100
2022-11-27T01:12:01.220Z,21.7100
2022-11-27T01:12:12.346Z,21.7200
2022-11-27T01:12:23.552Z,21.7200
2022-11-27T01:12:34.612Z,21.7200
2022-11-27T01:12:45.688Z,21.7100
2022-11-27T01:12:56.793Z,21.7200
2022-11-27T01:13:07.992Z,21.7200
2022-11-27T01:13:19.224Z,21.7100
2022-11-27T01:13:30.401Z,21.7100
2022-11-27T01:13:41.600Z,21.7100
2022-11-27T01:13:52.801Z,21.7000
2022-11-27T01:14:04.022Z,21.7000
2022-11-27T01:14:15.171Z,21.7100
2022-11-27T01:14:26.442Z,21.7100
2022-11-27T01:14:37.760Z,21.7100
2022-11-27T01:14:49.188Z,21.7100
2022-11-27T01:15:00.318Z,21.7000
2022-11-27T01:15:11.512Z,21.7000
2022-11-27T01:15:22.720Z,21.7000
2022-11-27T01:15:33.957Z,21.7100
2022-11-27T01:15:45.130Z,21.7000
2022-11-27T01:15:56.252Z,21.7100
2022-11-27T01:16:07.429Z,21.7100
2022-11-27T01:16:18.509Z,21.7100
2022-11-27T01:16:29.737Z,21.7100
2022-11-27T01:16:43.123Z,21.7100
2022-11-27T01:16:54.598Z,21.7100
2022-11-27T01:17:05.751Z,21.6900
2022-11-27T01:17:18.249Z,21.7000
2022-11-27T01:17:29.506Z,21.7000
2022-11-27T01:17:40.561Z,21.7000
2022-11-27T01:17:51.632Z,21.7000
2022-11-27T01:18:02.723Z,21.7100
2022-11-27T01:18:13.918Z,21.7100
2022-11-27T01:18:25.122Z,21.7100
2022-11-27T01:18:36.321Z,21.7000
2022-11-27T01:18:47.465Z,21.7000
2022-11-27T01:18:58.572Z,21.7000
2022-11-27T01:19:09.651Z,21.7000
2022-11-27T01:19:20.832Z,21.7000
2022-11-27T01:19:32.003Z,21.7000
2022-11-27T01:19:43.201Z,21.7000
2022-11-27T01:19:54.441Z,21.7000
2022-11-27T01:20:05.612Z,21.7000
2022-11-27T01:20:16.801Z,21.6900
2022-11-27T01:20:28.001Z,21.7000
2022-11-27T01:20:39.200Z,21.7000
2022-11-27T01:20:50.278Z,21.7000
2022-11-27T01:21:01.348Z,21.7000
2022-11-27T01:21:12.481Z,21.7000
2022-11-27T01:21:23.680Z,21.7000
2022-11-27T01:21:34.878Z,21.6900
2022-11-27T01:21:46.192Z,21.6900
2022-11-27T01:21:57.220Z,21.6900
2022-11-27T01:22:08.282Z,21.6900
2022-11-27T01:22:19.352Z,21.7000
2022-11-27T01:22:30.603Z,21.7000
2022-11-27T01:22:41.760Z,21.7000
2022-11-27T01:22:52.961Z,21.7000
2022-11-27T01:23:04.031Z,21.6900
2022-11-27T01:23:15.099Z,21.6900
2022-11-27T01:23:26.238Z,21.7000
2022-11-27T01:23:37.451Z,21.7000
2022-11-27T01:23:48.638Z,21.7000
2022-11-27T01:23:59.841Z,21.7000
2022-11-27T01:24:10.897Z,21.7000
2022-11-27T01:24:21.958Z,21.7000
2022-11-27T01:24:33.122Z,21.7000
2022-11-27T01:24:44.332Z,21.7000
2022-11-27T01:24:55.532Z,21.7000
2022-11-27T01:25:06.622Z,21.7000
2022-11-27T01:25:17.723Z,21.7100
2022-11-27T01:25:28.822Z,21.7100
2022-11-27T01:25:39.918Z,21.7100
2022-11-27T01:25:50.992Z,21.7100
2022-11-27T01:26:02.090Z,21.7100
2022-11-27T01:26:13.322Z,21.7100
2022-11-27T01:26:24.422Z,21.7100
2022-11-27T01:26:35.541Z,21.7100
2022-11-27T01:26:46.690Z,21.7200
2022-11-27T01:26:57.760Z,21.7100
2022-11-27T01:27:08.963Z,21.7100
2022-11-27T01:27:20.257Z,21.7100
2022-11-27T01:27:31.432Z,21.7100
2022-11-27T01:27:42.571Z,21.7100
2022-11-27T01:27:53.769Z,21.7000
2022-11-27T01:28:04.964Z,21.7000
2022-11-27T01:28:16.158Z,21.7000
2022-11-27T01:28:27.201Z,21.7000
2022-11-27T01:28:38.282Z,21.7000
2022-11-27T01:28:49.481Z,21.7000
2022-11-27T01:29:00.651Z,21.7000
2022-11-27T01:29:11.720Z,21.7000
2022-11-27T01:29:22.801Z,21.7000
2022-11-27T01:29:33.881Z,21.6900
2022-11-27T01:29:45.118Z,21.6900
2022-11-27T01:29:56.171Z,21.6900
2022-11-27T01:30:07.253Z,21.6900
2022-11-27T01:30:18.402Z,21.6900
2022-11-27T01:30:29.592Z,21.7000
2022-11-27T01:30:40.658Z,21.6900
2022-11-27T01:30:51.883Z,21.6900
2022-11-27T01:31:03.268Z,21.6900
2022-11-27T01:31:14.469Z,21.6900
2022-11-27T01:31:25.705Z,21.6900
2022-11-27T01:31:36.939Z,21.6900
2022-11-27T01:31:48.093Z,21.6900
2022-11-27T01:31:59.199Z,21.6900
2022-11-27T01:32:10.402Z,21.6900
2022-11-27T01:32:21.597Z,21.6900
2022-11-27T01:32:32.832Z,21.7000
2022-11-27T01:32:43.892Z,21.7000
2022-11-27T01:32:54.963Z,21.7000
2022-11-27T01:33:06.108Z,21.7000
2022-11-27T01:33:17.303Z,21.7000
2022-11-27T01:33:28.479Z,21.7000
2022-11-27T01:33:39.692Z,21.7000
2022-11-27T01:33:50.862Z,21.7000
2022-11-27T01:34:02.124Z,21.7000
2022-11-27T01:34:13.282Z,21.7000
2022-11-27T01:34:24.512Z,21.7000
2022-11-27T01:34:35.741Z,21.7000
2022-11-27T01:34:46.903Z,21.7100
2022-11-27T01:34:58.107Z,21.7000
2022-11-27T01:35:09.332Z,21.7000
2022-11-27T01:35:20.493Z,21.7000
2022-11-27T01:35:33.755Z,21.7000
2022-11-27T01:35:45.172Z,21.6900
2022-11-27T01:35:56.331Z,21.6800
2022-11-27T01:36:07.511Z,21.6800
2022-11-27T01:36:18.752Z,21.6800
2022-11-27T01:36:29.904Z,21.6800
2022-11-27T01:36:41.154Z,21.6800
2022-11-27T01:36:52.242Z,21.6800
2022-11-27T01:37:03.573Z,21.6800
2022-11-27T01:37:14.770Z,21.6900
2022-11-27T01:37:25.932Z,21.6900
2022-11-27T01:37:37.173Z,21.6900
2022-11-27T01:37:48.342Z,21.6900
2022-11-27T01:37:59.522Z,21.6900
2022-11-27T01:38:10.622Z,21.6900
2022-11-27T01:38:21.714Z,21.6900
2022-11-27T01:38:32.805Z,21.6900
2022-11-27T01:38:43.998Z,21.7000
2022-11-27T01:38:55.080Z,21.7000
2022-11-27T01:39:06.176Z,21.6900
2022-11-27T01:39:17.282Z,21.6900
2022-11-27T01:39:28.501Z,21.7000
2022-11-27T01:39:39.612Z,21.7000
2022-11-27T01:39:50.740Z,21.7000
2022-11-27T01:40:01.861Z,21.7000
2022-11-27T01:40:12.974Z,21.7000
2022-11-27T01:40:24.172Z,21.7000
2022-11-27T01:40:35.378Z,21.7000
2022-11-27T01:40:46.584Z,21.7000
2022-11-27T01:40:57.803Z,21.7000
2022-11-27T01:41:08.962Z,21.6900
2022-11-27T01:41:20.104Z,21.6900
2022-11-27T01:41:31.184Z,21.6900
2022-11-27T01:41:42.243Z,21.6900
2022-11-27T01:41:53.440Z,21.6900
2022-11-27T01:42:04.643Z,21.6900
2022-11-27T01:42:15.840Z,21.6900
2022-11-27T01:42:27.076Z,21.6900
2022-11-27T01:42:38.272Z,21.6900
2022-11-27T01:42:49.392Z,21.6900
2022-11-27T01:43:00.676Z,21.7000
2022-11-27T01:43:11.843Z,21.7000
2022-11-27T01:43:23.040Z,21.7000
2022-11-27T01:43:34.274Z,21.7000
2022-11-27T01:43:45.431Z,21.6900
2022-11-27T01:43:56.683Z,21.6900
2022-11-27T01:44:07.853Z,21.6900
2022-11-27T01:44:19.051Z,21.6900
2022-11-27T01:44:30.282Z,21.6900
2022-11-27T01:44:41.866Z,21.6900
2022-11-27T01:44:53.291Z,21.6900
2022-11-27T01:45:04.338Z,21.6900
2022-11-27T01:45:15.398Z,21.6900
2022-11-27T01:45:26.560Z,21.6900
2022-11-27T01:45:37.758Z,21.6900
2022-11-27T01:45:48.798Z,21.6800
2022-11-27T01:45:59.888Z,21.6800
2022-11-27T01:46:11.091Z,21.6800
2022-11-27T01:46:22.189Z,21.6800
2022-11-27T01:46:33.310Z,21.6800
2022-11-27T01:46:44.505Z,21.6800
2022-11-27T01:46:55.772Z,21.6800
2022-11-27T01:47:06.961Z,21.6800
2022-11-27T01:47:18.252Z,21.6800
2022-11-27T01:47:29.482Z,21.6900
2022-11-27T01:47:40.703Z,21.6900
2022-11-27T01:47:51.819Z,21.6800
2022-11-27T01:48:03.071Z,21.6800
2022-11-27T01:48:14.243Z,21.6800
2022-11-27T01:48:25.502Z,21.6800
2022-11-27T01:48:36.651Z,21.6900
2022-11-27T01:48:47.874Z,21.6800
2022-11-27T01:48:58.982Z,21.6800
2022-11-27T01:49:10.165Z,21.6800
2022-11-27T01:49:21.265Z,21.6800
2022-11-27T01:49:32.352Z,21.6900
2022-11-27T01:49:43.533Z,21.6800
2022-11-27T01:49:54.682Z,21.6900
2022-11-27T01:50:05.919Z,21.6800
2022-11-27T01:50:17.143Z,21.6800
2022-11-27T01:50:28.331Z,21.6800
2022-11-27T01:50:39.531Z,21.6800
2022-11-27T01:50:50.752Z,21.6800
2022-11-27T01:51:01.972Z,21.6800
2022-11-27T01:51:13.073Z,21.6900
2022-11-27T01:51:24.334Z,21.6900
2022-11-27T01:51:35.553Z,21.6900
2022-11-27T01:51:46.732Z,21.6800
2022-11-27T01:51:57.974Z,21.6800
2022-11-27T01:52:09.141Z,21.6800
2022-11-27T01:52:20.332Z,21.6800
2022-11-27T01:52:31.519Z,21.6800
2022-11-27T01:52:42.766Z,21.6800
2022-11-27T01:52:53.942Z,21.6800
2022-11-27T01:53:05.133Z,21.6800
2022-11-27T01:53:16.332Z,21.6800
2022-11-27T01:53:27.521Z,21.6800
2022-11-27T01:53:38.723Z,21.6800
2022-11-27T01:53:49.932Z,21.6800
2022-11-27T01:54:01.173Z,21.6800
2022-11-27T01:54:12.318Z,21.6800
2022-11-27T01:54:23.601Z,21.6800
2022-11-27T01:54:34.762Z,21.6800
2022-11-27T01:54:45.928Z,21.6800
2022-11-27T01:54:57.081Z,21.6800
2022-11-27T01:55:08.342Z,21.6800
2022-11-27T01:55:19.562Z,21.6800
2022-11-27T01:55:30.720Z,21.6800
2022-11-27T01:55:41.812Z,21.6800
2022-11-27T01:55:53.127Z,21.6800
2022-11-27T01:56:04.312Z,21.6800
2022-11-27T01:56:15.522Z,21.6700
2022-11-27T01:56:26.718Z,21.6800
2022-11-27T01:56:37.921Z,21.6800
2022-11-27T01:56:48.998Z,21.6800
2022-11-27T01:57:00.050Z,21.6700
2022-11-27T01:57:11.198Z,21.6800
2022-11-27T01:57:22.408Z,21.6800
2022-11-27T01:57:33.616Z,21.6700
2022-11-27T01:57:44.902Z,21.6700
2022-11-27T01:57:55.998Z,21.6700
2022-11-27T01:58:07.200Z,21.6700
2022-11-27T01:58:18.406Z,21.6600
2022-11-27T01:58:29.601Z,21.6700
2022-11-27T01:58:40.795Z,21.6700
2022-11-27T01:58:51.868Z,21.6700
2022-11-27T01:59:02.918Z,21.6700
2022-11-27T01:59:14.081Z,21.6700
2022-11-27T01:59:25.286Z,21.6700
2022-11-27T01:59:36.322Z,21.6700
2022-11-27T01:59:47.387Z,21.6700
2022-11-27T01:59:58.581Z,21.6700
2022-11-27T02:00:09.661Z,21.6700
2022-11-27T02:00:20.742Z,21.6800
2022-11-27T02:00:31.839Z,21.6800
2022-11-27T02:00:43.041Z,21.6800
2022-11-27T02:00:54.102Z,21.6800
2022-11-27T02:01:05.182Z,21.6800
2022-11-27T02:01:16.354Z,21.6900
2022-11-27T02:01:27.644Z,21.6900
2022-11-27T02:01:38.831Z,21.6900
2022-11-27T02:01:49.936Z,21.6900
2022-11-27T02:02:01.170Z,21.6800
2022-11-27T02:02:12.361Z,21.6800
2022-11-27T02:02:23.622Z,21.6800
2022-11-27T02:02:34.776Z,21.6800
2022-11-27T02:02:46.091Z,21.6700
2022-11-27T02:02:57.228Z,21.6700
2022-11-27T02:03:08.372Z,21.6700
2022-11-27T02:03:19.513Z,21.6700
2022-11-27T02:03:30.718Z,21.6700
2022-11-27T02:03:41.923Z,21.6800
2022-11-27T02:03:53.117Z,21.6800
2022-11-27T02:04:04.170Z,21.6800
2022-11-27T02:04:15.274Z,21.6900
2022-11-27T02:04:26.407Z,21.6900
2022-11-27T02:04:37.855Z,21.6900
2022-11-27T02:04:49.169Z,21.6900
2022-11-27T02:05:00.245Z,21.6800
2022-11-27T02:05:11.328Z,21.6800
2022-11-27T02:05:22.398Z,21.6800
2022-11-27T02:05:33.600Z,21.6900
2022-11-27T02:05:44.798Z,21.6900
2022-11-27T02:05:55.992Z,21.6900
2022-11-27T02:06:07.202Z,21.6900
2022-11-27T02:06:18.402Z,21.6800
2022-11-27T02:06:29.591Z,21.6800
2022-11-27T02:06:40.801Z,21.6800
2022-11-27T02:06:51.992Z,21.6800
2022-11-27T02:07:03.088Z,21.6800
2022-11-27T02:07:14.225Z,21.6800
2022-11-27T02:07:25.361Z,21.6800
2022-11-27T02:07:36.552Z,21.6800
2022-11-27T02:07:47.767Z,21.6800
2022-11-27T02:07:58.849Z,21.6800
2022-11-27T02:08:10.081Z,21.6800
2022-11-27T02:08:21.279Z,21.6800
2022-11-27T02:08:32.321Z,21.6800
2022-11-27T02:08:43.402Z,21.6800
2022-11-27T02:08:54.561Z,21.6800
2022-11-27T02:09:05.632Z,21.6800
2022-11-27T02:09:16.702Z,21.6800
2022-11-27T02:09:27.837Z,21.6800
2022-11-27T02:09:38.891Z,21.6800
2022-11-27T02:09:49.939Z,21.6800
2022-11-27T02:10:01.121Z,21.6800
2022-11-27T02:10:12.171Z,21.6800
2022-11-27T02:10:23.248Z,21.6800
2022-11-27T02:10:34.398Z,21.6800
2022-11-27T02:10:45.439Z,21.6800
2022-11-27T02:10:56.488Z,21.6800
2022-11-27T02:11:07.682Z,21.6800
2022-11-27T02:11:18.878Z,21.6800
2022-11-27T02:11:30.082Z,21.6800
2022-11-27T02:11:41.279Z,21.6700
2022-11-27T02:11:52.473Z,21.6800
2022-11-27T02:12:03.671Z,21.6700
2022-11-27T02:12:14.882Z,21.6700
2022-11-27T02:12:26.079Z,21.6700
2022-11-27T02:12:37.305Z,21.6700
2022-11-27T02:12:48.387Z,21.6800
2022-11-27T02:12:59.449Z,21.6800
2022-11-27T02:13:10.570Z,21.6800
2022-11-27T02:13:21.761Z,21.6800
2022-11-27T02:13:32.959Z,21.6800
2022-11-27T02:13:44.158Z,21.6800
2022-11-27T02:13:55.358Z,21.6800
2022-11-27T02:14:06.565Z,21.6700
2022-11-27T02:14:17.760Z,21.6700
2022-11-27T02:14:28.803Z,21.6700
2022-11-27T02:14:40.136Z,21.6800
2022-11-27T02:14:51.399Z,21.6800
2022-11-27T02:15:02.561Z,21.6800
2022-11-27T02:15:13.638Z,21.6800
2022-11-27T02:15:24.701Z,21.6800
2022-11-27T02:15:35.916Z,21.6800
2022-11-27T02:15:47.116Z,21.6800